sensor_id;sensor_type;location;lat;lon;timestamp;P1;durP1;ratioP1;P2;durP2;ratioP2
35576;SDS011;21680;52.400;16.920;2023-02-26T00:01:24;3.30;;;1.30;;
35576;SDS011;21680;52.400;16.920;2023-02-26T00:03:53;3.10;;;1.80;;
35576;SDS011;21680;52.400;16.920;2023-02-26T00:06:21;5.50;;;1.70;;
35576;SDS011;21680;52.400;16.920;2023-02-26T00:08:47;4.60;;;1.20;;
35576;SDS011;21680;52.400;16.920;2023-02-26T00:11:13;2.40;;;1.20;;
35576;SDS011;21680;52.400;16.920;2023-02-26T00:13:39;2.80;;;1.20;;
35576;SDS011;21680;52.400;16.920;2023-02-26T00:16:25;5.00;;;1.60;;
35576;SDS011;21680;52.400;16.920;2023-02-26T00:18:56;4.60;;;1.60;;
35576;SDS011;21680;52.400;16.920;2023-02-26T00:21:23;5.20;;;1.70;;
35576;SDS011;21680;52.400;16.920;2023-02-26T00:23:49;2.90;;;1.50;;
35576;SDS011;21680;52.400;16.920;2023-02-26T00:26:16;2.40;;;1.00;;
35576;SDS011;21680;52.400;16.920;2023-02-26T00:28:41;3.10;;;0.80;;
35576;SDS011;21680;52.400;16.920;2023-02-26T00:31:07;1.80;;;1.20;;
35576;SDS011;21680;52.400;16.920;2023-02-26T00:33:33;2.30;;;1.20;;
35576;SDS011;21680;52.400;16.920;2023-02-26T00:36:02;6.40;;;1.50;;
35576;SDS011;21680;52.400;16.920;2023-02-26T00:38:38;4.00;;;1.50;;
35576;SDS011;21680;52.400;16.920;2023-02-26T00:41:10;3.00;;;1.10;;
35576;SDS011;21680;52.400;16.920;2023-02-26T00:43:36;4.00;;;1.30;;
35576;SDS011;21680;52.400;16.920;2023-02-26T00:48:54;2.00;;;1.00;;
35576;SDS011;21680;52.400;16.920;2023-02-26T00:51:29;4.10;;;1.40;;
35576;SDS011;21680;52.400;16.920;2023-02-26T00:54:04;1.90;;;1.00;;
35576;SDS011;21680;52.400;16.920;2023-02-26T00:56:36;2.30;;;1.30;;
35576;SDS011;21680;52.400;16.920;2023-02-26T00:59:01;3.50;;;0.90;;
35576;SDS011;21680;52.400;16.920;2023-02-26T01:01:27;5.50;;;1.10;;
35576;SDS011;21680;52.400;16.920;2023-02-26T01:03:52;2.80;;;1.40;;
35576;SDS011;21680;52.400;16.920;2023-02-26T01:06:19;3.40;;;0.90;;
35576;SDS011;21680;52.400;16.920;2023-02-26T01:11:18;5.20;;;1.00;;
35576;SDS011;21680;52.400;16.920;2023-02-26T01:13:44;4.20;;;1.20;;
35576;SDS011;21680;52.400;16.920;2023-02-26T01:16:11;2.10;;;1.00;;
35576;SDS011;21680;52.400;16.920;2023-02-26T01:18:49;5.90;;;0.90;;
35576;SDS011;21680;52.400;16.920;2023-02-26T01:21:23;2.60;;;0.80;;
35576;SDS011;21680;52.400;16.920;2023-02-26T01:24:04;1.70;;;0.70;;
35576;SDS011;21680;52.400;16.920;2023-02-26T01:26:33;3.10;;;0.80;;
35576;SDS011;21680;52.400;16.920;2023-02-26T01:28:58;5.00;;;1.00;;
35576;SDS011;21680;52.400;16.920;2023-02-26T01:31:58;3.30;;;0.80;;
35576;SDS011;21680;52.400;16.920;2023-02-26T01:34:47;1.80;;;0.90;;
35576;SDS011;21680;52.400;16.920;2023-02-26T01:42:39;2.70;;;0.80;;
35576;SDS011;21680;52.400;16.920;2023-02-26T01:48:06;2.30;;;0.50;;
35576;SDS011;21680;52.400;16.920;2023-02-26T01:50:42;2.80;;;1.00;;
35576;SDS011;21680;52.400;16.920;2023-02-26T01:53:24;1.40;;;0.80;;
35576;SDS011;21680;52.400;16.920;2023-02-26T01:55:55;4.50;;;1.00;;
35576;SDS011;21680;52.400;16.920;2023-02-26T01:58:32;5.60;;;1.10;;
35576;SDS011;21680;52.400;16.920;2023-02-26T02:01:00;3.70;;;0.80;;
35576;SDS011;21680;52.400;16.920;2023-02-26T02:03:26;2.50;;;1.00;;
35576;SDS011;21680;52.400;16.920;2023-02-26T02:06:05;6.70;;;1.20;;
35576;SDS011;21680;52.400;16.920;2023-02-26T02:08:33;2.10;;;0.90;;
35576;SDS011;21680;52.400;16.920;2023-02-26T02:11:00;3.90;;;1.00;;
35576;SDS011;21680;52.400;16.920;2023-02-26T02:30:05;2.80;;;1.00;;
35576;SDS011;21680;52.400;16.920;2023-02-26T02:32:42;3.50;;;1.20;;
35576;SDS011;21680;52.400;16.920;2023-02-26T02:35:12;4.50;;;1.10;;
35576;SDS011;21680;52.400;16.920;2023-02-26T02:37:59;3.00;;;1.30;;
35576;SDS011;21680;52.400;16.920;2023-02-26T02:40:33;2.20;;;1.00;;
35576;SDS011;21680;52.400;16.920;2023-02-26T02:43:03;5.20;;;2.30;;
35576;SDS011;21680;52.400;16.920;2023-02-26T02:45:39;1.50;;;0.70;;
35576;SDS011;21680;52.400;16.920;2023-02-26T02:53:56;9.30;;;1.30;;
35576;SDS011;21680;52.400;16.920;2023-02-26T02:56:33;6.10;;;2.20;;
35576;SDS011;21680;52.400;16.920;2023-02-26T02:59:09;2.20;;;1.00;;
35576;SDS011;21680;52.400;16.920;2023-02-26T03:01:40;2.20;;;1.00;;
35576;SDS011;21680;52.400;16.920;2023-02-26T03:04:08;5.90;;;1.70;;
35576;SDS011;21680;52.400;16.920;2023-02-26T03:06:36;3.80;;;0.70;;
35576;SDS011;21680;52.400;16.920;2023-02-26T03:09:03;7.10;;;1.20;;
35576;SDS011;21680;52.400;16.920;2023-02-26T03:11:31;2.80;;;1.20;;
35576;SDS011;21680;52.400;16.920;2023-02-26T03:13:56;3.30;;;0.90;;
35576;SDS011;21680;52.400;16.920;2023-02-26T03:16:29;4.20;;;0.90;;
35576;SDS011;21680;52.400;16.920;2023-02-26T03:19:35;0.70;;;0.50;;
35576;SDS011;21680;52.400;16.920;2023-02-26T03:22:22;3.90;;;0.80;;
35576;SDS011;21680;52.400;16.920;2023-02-26T03:25:07;3.70;;;1.20;;
35576;SDS011;21680;52.400;16.920;2023-02-26T03:27:43;0.80;;;0.50;;
35576;SDS011;21680;52.400;16.920;2023-02-26T03:30:15;2.60;;;0.70;;
35576;SDS011;21680;52.400;16.920;2023-02-26T03:32:57;2.60;;;0.70;;
35576;SDS011;21680;52.400;16.920;2023-02-26T03:38:39;4.40;;;0.80;;
35576;SDS011;21680;52.400;16.920;2023-02-26T03:41:17;2.00;;;0.60;;
35576;SDS011;21680;52.400;16.920;2023-02-26T03:43:50;3.30;;;0.60;;
35576;SDS011;21680;52.400;16.920;2023-02-26T03:46:28;1.80;;;0.90;;
35576;SDS011;21680;52.400;16.920;2023-02-26T03:48:58;3.40;;;1.10;;
35576;SDS011;21680;52.400;16.920;2023-02-26T03:51:29;3.30;;;0.70;;
35576;SDS011;21680;52.400;16.920;2023-02-26T03:54:07;2.60;;;1.00;;
35576;SDS011;21680;52.400;16.920;2023-02-26T03:56:45;8.60;;;1.00;;
35576;SDS011;21680;52.400;16.920;2023-02-26T03:59:12;2.10;;;0.90;;
35576;SDS011;21680;52.400;16.920;2023-02-26T04:01:50;1.60;;;0.60;;
35576;SDS011;21680;52.400;16.920;2023-02-26T04:04:30;2.60;;;0.80;;
35576;SDS011;21680;52.400;16.920;2023-02-26T04:06:59;2.20;;;1.00;;
35576;SDS011;21680;52.400;16.920;2023-02-26T04:09:26;2.20;;;0.90;;
35576;SDS011;21680;52.400;16.920;2023-02-26T04:11:52;3.80;;;1.10;;
35576;SDS011;21680;52.400;16.920;2023-02-26T04:14:18;3.20;;;0.60;;
35576;SDS011;21680;52.400;16.920;2023-02-26T04:16:44;3.70;;;1.10;;
35576;SDS011;21680;52.400;16.920;2023-02-26T04:19:10;5.40;;;2.00;;
35576;SDS011;21680;52.400;16.920;2023-02-26T04:21:35;2.60;;;0.60;;
35576;SDS011;21680;52.400;16.920;2023-02-26T04:24:01;3.50;;;0.90;;
35576;SDS011;21680;52.400;16.920;2023-02-26T04:26:26;3.20;;;0.50;;
35576;SDS011;21680;52.400;16.920;2023-02-26T04:28:51;3.20;;;0.70;;
35576;SDS011;21680;52.400;16.920;2023-02-26T04:31:16;3.50;;;0.90;;
35576;SDS011;21680;52.400;16.920;2023-02-26T04:33:42;7.50;;;1.00;;
35576;SDS011;21680;52.400;16.920;2023-02-26T04:36:08;3.00;;;0.90;;
35576;SDS011;21680;52.400;16.920;2023-02-26T04:38:34;3.80;;;0.70;;
35576;SDS011;21680;52.400;16.920;2023-02-26T04:40:59;4.00;;;0.90;;
35576;SDS011;21680;52.400;16.920;2023-02-26T04:43:25;1.90;;;0.80;;
35576;SDS011;21680;52.400;16.920;2023-02-26T04:45:50;4.40;;;0.80;;
35576;SDS011;21680;52.400;16.920;2023-02-26T04:48:15;5.00;;;0.80;;
35576;SDS011;21680;52.400;16.920;2023-02-26T04:50:41;2.20;;;0.90;;
35576;SDS011;21680;52.400;16.920;2023-02-26T04:53:07;2.10;;;0.90;;
35576;SDS011;21680;52.400;16.920;2023-02-26T04:55:33;1.70;;;0.70;;
35576;SDS011;21680;52.400;16.920;2023-02-26T04:57:58;5.30;;;1.00;;
35576;SDS011;21680;52.400;16.920;2023-02-26T05:00:24;6.30;;;1.20;;
35576;SDS011;21680;52.400;16.920;2023-02-26T05:02:50;4.30;;;1.00;;
35576;SDS011;21680;52.400;16.920;2023-02-26T05:05:15;2.20;;;1.00;;
35576;SDS011;21680;52.400;16.920;2023-02-26T05:07:40;1.80;;;1.00;;
35576;SDS011;21680;52.400;16.920;2023-02-26T05:10:06;4.70;;;0.90;;
35576;SDS011;21680;52.400;16.920;2023-02-26T05:12:32;3.50;;;1.20;;
35576;SDS011;21680;52.400;16.920;2023-02-26T05:14:57;9.40;;;1.00;;
35576;SDS011;21680;52.400;16.920;2023-02-26T05:17:23;4.20;;;0.90;;
35576;SDS011;21680;52.400;16.920;2023-02-26T05:19:48;1.30;;;0.80;;
35576;SDS011;21680;52.400;16.920;2023-02-26T05:22:13;4.70;;;1.20;;
35576;SDS011;21680;52.400;16.920;2023-02-26T05:24:38;3.80;;;1.30;;
35576;SDS011;21680;52.400;16.920;2023-02-26T05:27:04;1.70;;;0.80;;
35576;SDS011;21680;52.400;16.920;2023-02-26T05:29:29;1.90;;;1.00;;
35576;SDS011;21680;52.400;16.920;2023-02-26T05:31:55;3.90;;;1.20;;
35576;SDS011;21680;52.400;16.920;2023-02-26T05:34:20;4.80;;;1.20;;
35576;SDS011;21680;52.400;16.920;2023-02-26T05:36:45;2.10;;;0.80;;
35576;SDS011;21680;52.400;16.920;2023-02-26T05:39:11;4.10;;;0.90;;
35576;SDS011;21680;52.400;16.920;2023-02-26T05:41:36;5.10;;;0.80;;
35576;SDS011;21680;52.400;16.920;2023-02-26T05:44:01;5.90;;;1.40;;
35576;SDS011;21680;52.400;16.920;2023-02-26T05:46:27;3.80;;;1.10;;
35576;SDS011;21680;52.400;16.920;2023-02-26T05:48:52;9.20;;;0.90;;
35576;SDS011;21680;52.400;16.920;2023-02-26T05:51:18;1.80;;;1.10;;
35576;SDS011;21680;52.400;16.920;2023-02-26T05:53:43;3.00;;;1.20;;
35576;SDS011;21680;52.400;16.920;2023-02-26T05:56:09;1.40;;;0.80;;
35576;SDS011;21680;52.400;16.920;2023-02-26T05:58:34;4.00;;;1.10;;
35576;SDS011;21680;52.400;16.920;2023-02-26T06:01:00;3.70;;;1.40;;
35576;SDS011;21680;52.400;16.920;2023-02-26T06:03:25;3.00;;;1.30;;
35576;SDS011;21680;52.400;16.920;2023-02-26T06:05:51;3.30;;;0.90;;
35576;SDS011;21680;52.400;16.920;2023-02-26T06:08:16;4.00;;;1.00;;
35576;SDS011;21680;52.400;16.920;2023-02-26T06:10:41;4.40;;;1.00;;
35576;SDS011;21680;52.400;16.920;2023-02-26T06:13:07;4.80;;;1.20;;
35576;SDS011;21680;52.400;16.920;2023-02-26T06:15:33;4.10;;;1.10;;
35576;SDS011;21680;52.400;16.920;2023-02-26T06:17:58;6.60;;;1.30;;
35576;SDS011;21680;52.400;16.920;2023-02-26T06:20:23;7.10;;;1.10;;
35576;SDS011;21680;52.400;16.920;2023-02-26T06:22:48;2.20;;;1.00;;
35576;SDS011;21680;52.400;16.920;2023-02-26T06:25:14;5.20;;;1.10;;
35576;SDS011;21680;52.400;16.920;2023-02-26T06:27:40;2.90;;;1.20;;
35576;SDS011;21680;52.400;16.920;2023-02-26T06:30:05;6.80;;;1.70;;
35576;SDS011;21680;52.400;16.920;2023-02-26T06:32:31;4.30;;;2.00;;
35576;SDS011;21680;52.400;16.920;2023-02-26T06:34:57;1.50;;;0.90;;
35576;SDS011;21680;52.400;16.920;2023-02-26T06:37:22;3.40;;;1.20;;
35576;SDS011;21680;52.400;16.920;2023-02-26T06:39:48;5.30;;;1.70;;
35576;SDS011;21680;52.400;16.920;2023-02-26T06:42:13;4.40;;;1.10;;
35576;SDS011;21680;52.400;16.920;2023-02-26T06:44:38;4.50;;;0.90;;
35576;SDS011;21680;52.400;16.920;2023-02-26T06:47:04;3.50;;;1.40;;
35576;SDS011;21680;52.400;16.920;2023-02-26T06:49:29;4.70;;;1.30;;
35576;SDS011;21680;52.400;16.920;2023-02-26T06:51:54;2.10;;;1.00;;
35576;SDS011;21680;52.400;16.920;2023-02-26T06:54:20;4.70;;;1.50;;
35576;SDS011;21680;52.400;16.920;2023-02-26T06:56:46;3.30;;;1.10;;
35576;SDS011;21680;52.400;16.920;2023-02-26T06:59:11;6.30;;;1.60;;
35576;SDS011;21680;52.400;16.920;2023-02-26T07:01:38;1.80;;;1.20;;
35576;SDS011;21680;52.400;16.920;2023-02-26T07:04:03;5.50;;;1.70;;
35576;SDS011;21680;52.400;16.920;2023-02-26T07:06:29;2.80;;;1.00;;
35576;SDS011;21680;52.400;16.920;2023-02-26T07:08:54;2.50;;;1.20;;
35576;SDS011;21680;52.400;16.920;2023-02-26T07:11:20;2.40;;;1.30;;
35576;SDS011;21680;52.400;16.920;2023-02-26T07:13:45;4.80;;;1.40;;
35576;SDS011;21680;52.400;16.920;2023-02-26T07:16:10;9.10;;;1.10;;
35576;SDS011;21680;52.400;16.920;2023-02-26T07:18:36;9.00;;;1.50;;
35576;SDS011;21680;52.400;16.920;2023-02-26T07:21:02;6.20;;;1.50;;
35576;SDS011;21680;52.400;16.920;2023-02-26T07:23:29;6.90;;;2.00;;
35576;SDS011;21680;52.400;16.920;2023-02-26T07:25:54;5.20;;;1.60;;
35576;SDS011;21680;52.400;16.920;2023-02-26T07:28:20;7.30;;;1.60;;
35576;SDS011;21680;52.400;16.920;2023-02-26T07:30:47;8.70;;;1.60;;
35576;SDS011;21680;52.400;16.920;2023-02-26T07:33:12;7.10;;;1.70;;
35576;SDS011;21680;52.400;16.920;2023-02-26T07:35:38;8.90;;;2.30;;
35576;SDS011;21680;52.400;16.920;2023-02-26T07:38:04;7.90;;;1.70;;
35576;SDS011;21680;52.400;16.920;2023-02-26T07:40:30;8.20;;;2.00;;
35576;SDS011;21680;52.400;16.920;2023-02-26T07:42:58;6.20;;;2.10;;
35576;SDS011;21680;52.400;16.920;2023-02-26T07:45:26;8.90;;;1.90;;
35576;SDS011;21680;52.400;16.920;2023-02-26T07:47:51;9.00;;;1.80;;
35576;SDS011;21680;52.400;16.920;2023-02-26T07:50:18;8.20;;;2.30;;
35576;SDS011;21680;52.400;16.920;2023-02-26T07:52:45;8.90;;;1.80;;
35576;SDS011;21680;52.400;16.920;2023-02-26T07:55:11;7.20;;;1.80;;
35576;SDS011;21680;52.400;16.920;2023-02-26T07:57:36;7.70;;;1.90;;
35576;SDS011;21680;52.400;16.920;2023-02-26T08:00:02;8.10;;;1.70;;
35576;SDS011;21680;52.400;16.920;2023-02-26T08:02:29;5.80;;;1.70;;
35576;SDS011;21680;52.400;16.920;2023-02-26T08:04:54;8.20;;;1.80;;
35576;SDS011;21680;52.400;16.920;2023-02-26T08:07:20;4.00;;;1.40;;
35576;SDS011;21680;52.400;16.920;2023-02-26T08:09:46;2.40;;;1.30;;
35576;SDS011;21680;52.400;16.920;2023-02-26T08:12:11;6.90;;;1.20;;
35576;SDS011;21680;52.400;16.920;2023-02-26T08:14:37;6.60;;;1.30;;
35576;SDS011;21680;52.400;16.920;2023-02-26T08:17:03;4.60;;;1.60;;
35576;SDS011;21680;52.400;16.920;2023-02-26T08:19:29;5.00;;;1.30;;
35576;SDS011;21680;52.400;16.920;2023-02-26T08:21:54;6.30;;;1.60;;
35576;SDS011;21680;52.400;16.920;2023-02-26T08:24:20;5.10;;;1.40;;
35576;SDS011;21680;52.400;16.920;2023-02-26T08:26:46;7.90;;;1.40;;
35576;SDS011;21680;52.400;16.920;2023-02-26T08:29:11;8.90;;;2.30;;
35576;SDS011;21680;52.400;16.920;2023-02-26T08:31:37;6.20;;;1.70;;
35576;SDS011;21680;52.400;16.920;2023-02-26T08:34:02;5.70;;;1.50;;
35576;SDS011;21680;52.400;16.920;2023-02-26T08:36:28;6.00;;;2.30;;
35576;SDS011;21680;52.400;16.920;2023-02-26T08:38:53;6.40;;;1.80;;
35576;SDS011;21680;52.400;16.920;2023-02-26T08:41:19;4.70;;;1.60;;
35576;SDS011;21680;52.400;16.920;2023-02-26T08:43:44;7.40;;;1.70;;
35576;SDS011;21680;52.400;16.920;2023-02-26T08:46:09;5.90;;;1.60;;
35576;SDS011;21680;52.400;16.920;2023-02-26T08:48:35;10.00;;;1.40;;
35576;SDS011;21680;52.400;16.920;2023-02-26T08:51:00;5.50;;;1.50;;
35576;SDS011;21680;52.400;16.920;2023-02-26T08:53:25;5.60;;;1.30;;
35576;SDS011;21680;52.400;16.920;2023-02-26T08:55:51;4.60;;;1.20;;
35576;SDS011;21680;52.400;16.920;2023-02-26T08:58:17;8.40;;;2.10;;
35576;SDS011;21680;52.400;16.920;2023-02-26T09:00:43;8.20;;;1.30;;
35576;SDS011;21680;52.400;16.920;2023-02-26T09:03:09;8.40;;;1.30;;
35576;SDS011;21680;52.400;16.920;2023-02-26T09:05:35;11.50;;;1.80;;
35576;SDS011;21680;52.400;16.920;2023-02-26T09:08:01;7.30;;;1.70;;
35576;SDS011;21680;52.400;16.920;2023-02-26T09:10:26;5.10;;;1.20;;
35576;SDS011;21680;52.400;16.920;2023-02-26T09:12:51;7.10;;;1.40;;
35576;SDS011;21680;52.400;16.920;2023-02-26T09:15:17;5.40;;;1.50;;
35576;SDS011;21680;52.400;16.920;2023-02-26T09:17:42;6.40;;;2.50;;
35576;SDS011;21680;52.400;16.920;2023-02-26T09:20:08;5.30;;;1.90;;
35576;SDS011;21680;52.400;16.920;2023-02-26T09:22:34;5.80;;;1.50;;
35576;SDS011;21680;52.400;16.920;2023-02-26T09:25:00;7.00;;;2.00;;
35576;SDS011;21680;52.400;16.920;2023-02-26T09:27:26;6.70;;;1.50;;
35576;SDS011;21680;52.400;16.920;2023-02-26T09:29:52;6.00;;;1.10;;
35576;SDS011;21680;52.400;16.920;2023-02-26T09:32:17;7.80;;;1.50;;
35576;SDS011;21680;52.400;16.920;2023-02-26T09:34:43;8.90;;;1.50;;
35576;SDS011;21680;52.400;16.920;2023-02-26T09:37:08;7.70;;;1.60;;
35576;SDS011;21680;52.400;16.920;2023-02-26T09:39:34;3.30;;;1.60;;
35576;SDS011;21680;52.400;16.920;2023-02-26T09:45:04;4.70;;;1.30;;
35576;SDS011;21680;52.400;16.920;2023-02-26T09:47:37;7.90;;;1.60;;
35576;SDS011;21680;52.400;16.920;2023-02-26T09:50:18;4.80;;;1.30;;
35576;SDS011;21680;52.400;16.920;2023-02-26T09:52:52;8.90;;;1.50;;
35576;SDS011;21680;52.400;16.920;2023-02-26T09:58:22;8.50;;;1.30;;
35576;SDS011;21680;52.400;16.920;2023-02-26T10:00:57;7.50;;;0.90;;
35576;SDS011;21680;52.400;16.920;2023-02-26T10:11:49;9.00;;;1.70;;
35576;SDS011;21680;52.400;16.920;2023-02-26T10:14:23;6.10;;;1.80;;
35576;SDS011;21680;52.400;16.920;2023-02-26T10:19:52;7.70;;;1.80;;
35576;SDS011;21680;52.400;16.920;2023-02-26T10:25:08;16.70;;;2.60;;
35576;SDS011;21680;52.400;16.920;2023-02-26T10:27:41;9.50;;;1.80;;
35576;SDS011;21680;52.400;16.920;2023-02-26T10:30:27;4.10;;;1.40;;
35576;SDS011;21680;52.400;16.920;2023-02-26T10:35:57;6.50;;;2.10;;
35576;SDS011;21680;52.400;16.920;2023-02-26T10:38:33;5.40;;;1.70;;
35576;SDS011;21680;52.400;16.920;2023-02-26T10:41:10;4.40;;;1.20;;
35576;SDS011;21680;52.400;16.920;2023-02-26T10:43:40;3.80;;;0.80;;
35576;SDS011;21680;52.400;16.920;2023-02-26T10:51:49;3.10;;;0.80;;
35576;SDS011;21680;52.400;16.920;2023-02-26T10:54:28;5.70;;;1.50;;
35576;SDS011;21680;52.400;16.920;2023-02-26T10:56:57;4.50;;;1.20;;
35576;SDS011;21680;52.400;16.920;2023-02-26T10:59:22;3.00;;;1.60;;
35576;SDS011;21680;52.400;16.920;2023-02-26T11:01:48;7.30;;;1.80;;
35576;SDS011;21680;52.400;16.920;2023-02-26T11:04:21;6.00;;;1.70;;
35576;SDS011;21680;52.400;16.920;2023-02-26T11:06:51;3.70;;;1.50;;
35576;SDS011;21680;52.400;16.920;2023-02-26T11:12:03;4.20;;;1.20;;
35576;SDS011;21680;52.400;16.920;2023-02-26T11:14:37;5.00;;;1.40;;
35576;SDS011;21680;52.400;16.920;2023-02-26T11:17:06;3.80;;;1.00;;
35576;SDS011;21680;52.400;16.920;2023-02-26T11:19:41;3.40;;;1.00;;
35576;SDS011;21680;52.400;16.920;2023-02-26T11:22:14;10.80;;;1.10;;
35576;SDS011;21680;52.400;16.920;2023-02-26T11:24:43;4.20;;;0.90;;
35576;SDS011;21680;52.400;16.920;2023-02-26T11:30:19;6.90;;;1.00;;
35576;SDS011;21680;52.400;16.920;2023-02-26T11:32:49;3.10;;;1.10;;
35576;SDS011;21680;52.400;16.920;2023-02-26T11:35:16;10.40;;;1.40;;
35576;SDS011;21680;52.400;16.920;2023-02-26T11:37:46;3.80;;;1.20;;
35576;SDS011;21680;52.400;16.920;2023-02-26T11:40:15;2.40;;;1.00;;
35576;SDS011;21680;52.400;16.920;2023-02-26T11:42:52;5.10;;;0.90;;
35576;SDS011;21680;52.400;16.920;2023-02-26T11:45:20;3.50;;;1.00;;
35576;SDS011;21680;52.400;16.920;2023-02-26T11:47:47;7.10;;;0.90;;
35576;SDS011;21680;52.400;16.920;2023-02-26T11:50:15;4.90;;;1.10;;
35576;SDS011;21680;52.400;16.920;2023-02-26T11:52:45;6.30;;;1.20;;
35576;SDS011;21680;52.400;16.920;2023-02-26T11:55:26;7.90;;;1.60;;
35576;SDS011;21680;52.400;16.920;2023-02-26T11:57:53;5.20;;;1.20;;
35576;SDS011;21680;52.400;16.920;2023-02-26T12:00:24;3.60;;;1.10;;
35576;SDS011;21680;52.400;16.920;2023-02-26T12:02:59;7.80;;;1.50;;
35576;SDS011;21680;52.400;16.920;2023-02-26T12:05:28;10.40;;;3.30;;
35576;SDS011;21680;52.400;16.920;2023-02-26T12:07:55;4.70;;;1.40;;
35576;SDS011;21680;52.400;16.920;2023-02-26T12:10:37;10.10;;;1.60;;
35576;SDS011;21680;52.400;16.920;2023-02-26T12:18:36;3.60;;;1.20;;
35576;SDS011;21680;52.400;16.920;2023-02-26T12:21:18;11.80;;;1.40;;
35576;SDS011;21680;52.400;16.920;2023-02-26T12:26:57;6.60;;;1.10;;
35576;SDS011;21680;52.400;16.920;2023-02-26T12:32:21;4.80;;;1.40;;
35576;SDS011;21680;52.400;16.920;2023-02-26T12:41:39;7.80;;;1.80;;
35576;SDS011;21680;52.400;16.920;2023-02-26T12:44:32;4.90;;;1.10;;
35576;SDS011;21680;52.400;16.920;2023-02-26T12:50:16;5.60;;;1.30;;
35576;SDS011;21680;52.400;16.920;2023-02-26T12:58:53;4.70;;;1.10;;
35576;SDS011;21680;52.400;16.920;2023-02-26T13:04:22;5.20;;;1.20;;
35576;SDS011;21680;52.400;16.920;2023-02-26T13:07:08;7.70;;;1.30;;
35576;SDS011;21680;52.400;16.920;2023-02-26T13:12:26;7.80;;;1.40;;
35576;SDS011;21680;52.400;16.920;2023-02-26T13:15:13;3.80;;;1.00;;
35576;SDS011;21680;52.400;16.920;2023-02-26T13:20:38;5.20;;;1.50;;
35576;SDS011;21680;52.400;16.920;2023-02-26T13:23:14;8.60;;;1.70;;
35576;SDS011;21680;52.400;16.920;2023-02-26T13:31:04;5.40;;;1.30;;
35576;SDS011;21680;52.400;16.920;2023-02-26T13:33:36;5.90;;;1.10;;
35576;SDS011;21680;52.400;16.920;2023-02-26T13:36:03;5.00;;;1.20;;
35576;SDS011;21680;52.400;16.920;2023-02-26T13:44:31;4.80;;;0.70;;
35576;SDS011;21680;52.400;16.920;2023-02-26T13:52:30;5.90;;;1.20;;
35576;SDS011;21680;52.400;16.920;2023-02-26T13:54:58;5.00;;;1.30;;
35576;SDS011;21680;52.400;16.920;2023-02-26T14:03:12;4.70;;;1.60;;
35576;SDS011;21680;52.400;16.920;2023-02-26T14:06:19;6.40;;;1.70;;
35576;SDS011;21680;52.400;16.920;2023-02-26T14:08:49;2.70;;;1.10;;
35576;SDS011;21680;52.400;16.920;2023-02-26T14:20:35;2.20;;;0.90;;
35576;SDS011;21680;52.400;16.920;2023-02-26T14:22:41;5.00;;;1.00;;
35576;SDS011;21680;52.400;16.920;2023-02-26T14:25:18;5.30;;;1.30;;
35576;SDS011;21680;52.400;16.920;2023-02-26T14:27:58;3.90;;;0.80;;
35576;SDS011;21680;52.400;16.920;2023-02-26T14:30:49;3.30;;;0.60;;
35576;SDS011;21680;52.400;16.920;2023-02-26T14:33:17;1.70;;;0.60;;
35576;SDS011;21680;52.400;16.920;2023-02-26T14:35:44;3.30;;;0.80;;
35576;SDS011;21680;52.400;16.920;2023-02-26T14:38:26;8.60;;;1.90;;
35576;SDS011;21680;52.400;16.920;2023-02-26T14:40:58;8.00;;;1.40;;
35576;SDS011;21680;52.400;16.920;2023-02-26T14:43:38;2.70;;;1.40;;
35576;SDS011;21680;52.400;16.920;2023-02-26T14:46:07;3.60;;;1.00;;
35576;SDS011;21680;52.400;16.920;2023-02-26T14:48:34;6.60;;;1.30;;
35576;SDS011;21680;52.400;16.920;2023-02-26T14:53:36;2.10;;;0.60;;
35576;SDS011;21680;52.400;16.920;2023-02-26T14:59:15;7.50;;;1.30;;
35576;SDS011;21680;52.400;16.920;2023-02-26T15:08:00;2.10;;;0.40;;
35576;SDS011;21680;52.400;16.920;2023-02-26T15:16:12;3.00;;;0.60;;
35576;SDS011;21680;52.400;16.920;2023-02-26T15:24:17;4.50;;;1.00;;
35576;SDS011;21680;52.400;16.920;2023-02-26T15:26:47;5.20;;;1.70;;
35576;SDS011;21680;52.400;16.920;2023-02-26T15:29:15;2.40;;;0.90;;
35576;SDS011;21680;52.400;16.920;2023-02-26T15:31:43;4.10;;;0.90;;
35576;SDS011;21680;52.400;16.920;2023-02-26T15:34:18;4.50;;;0.90;;
35576;SDS011;21680;52.400;16.920;2023-02-26T15:36:45;3.60;;;1.20;;
35576;SDS011;21680;52.400;16.920;2023-02-26T15:39:14;2.10;;;0.70;;
35576;SDS011;21680;52.400;16.920;2023-02-26T15:41:42;1.80;;;0.80;;
35576;SDS011;21680;52.400;16.920;2023-02-26T15:44:09;3.50;;;0.90;;
35576;SDS011;21680;52.400;16.920;2023-02-26T15:46:40;3.50;;;0.70;;
35576;SDS011;21680;52.400;16.920;2023-02-26T15:49:14;2.90;;;0.80;;
35576;SDS011;21680;52.400;16.920;2023-02-26T15:51:47;4.80;;;1.20;;
35576;SDS011;21680;52.400;16.920;2023-02-26T15:54:15;3.60;;;1.20;;
35576;SDS011;21680;52.400;16.920;2023-02-26T15:56:43;5.20;;;1.30;;
35576;SDS011;21680;52.400;16.920;2023-02-26T15:59:11;4.20;;;1.30;;
35576;SDS011;21680;52.400;16.920;2023-02-26T16:01:42;5.00;;;1.30;;
35576;SDS011;21680;52.400;16.920;2023-02-26T16:04:15;4.60;;;0.80;;
35576;SDS011;21680;52.400;16.920;2023-02-26T16:06:43;2.50;;;0.80;;
35576;SDS011;21680;52.400;16.920;2023-02-26T16:09:30;3.30;;;1.10;;
35576;SDS011;21680;52.400;16.920;2023-02-26T16:12:00;5.40;;;1.60;;
35576;SDS011;21680;52.400;16.920;2023-02-26T16:14:35;4.50;;;1.00;;
35576;SDS011;21680;52.400;16.920;2023-02-26T16:17:03;2.40;;;0.90;;
35576;SDS011;21680;52.400;16.920;2023-02-26T16:19:35;3.30;;;1.30;;
35576;SDS011;21680;52.400;16.920;2023-02-26T16:22:16;4.60;;;1.40;;
35576;SDS011;21680;52.400;16.920;2023-02-26T16:25:04;8.10;;;2.80;;
35576;SDS011;21680;52.400;16.920;2023-02-26T16:27:34;7.00;;;2.50;;
35576;SDS011;21680;52.400;16.920;2023-02-26T16:30:01;15.80;;;3.20;;
35576;SDS011;21680;52.400;16.920;2023-02-26T16:32:32;16.50;;;5.00;;
35576;SDS011;21680;52.400;16.920;2023-02-26T16:37:33;7.40;;;2.60;;
35576;SDS011;21680;52.400;16.920;2023-02-26T16:40:11;10.00;;;2.70;;
35576;SDS011;21680;52.400;16.920;2023-02-26T16:45:48;9.60;;;1.90;;
35576;SDS011;21680;52.400;16.920;2023-02-26T16:48:18;4.00;;;1.40;;
35576;SDS011;21680;52.400;16.920;2023-02-26T16:50:58;7.70;;;1.70;;
35576;SDS011;21680;52.400;16.920;2023-02-26T16:53:36;8.30;;;1.90;;
35576;SDS011;21680;52.400;16.920;2023-02-26T16:56:13;5.90;;;1.70;;
35576;SDS011;21680;52.400;16.920;2023-02-26T16:58:55;4.60;;;1.20;;
35576;SDS011;21680;52.400;16.920;2023-02-26T17:01:21;3.40;;;1.00;;
35576;SDS011;21680;52.400;16.920;2023-02-26T17:03:54;6.00;;;1.40;;
35576;SDS011;21680;52.400;16.920;2023-02-26T17:06:25;3.90;;;1.70;;
35576;SDS011;21680;52.400;16.920;2023-02-26T17:08:58;8.80;;;1.60;;
35576;SDS011;21680;52.400;16.920;2023-02-26T17:11:26;9.70;;;2.60;;
35576;SDS011;21680;52.400;16.920;2023-02-26T17:16:43;7.40;;;2.30;;
35576;SDS011;21680;52.400;16.920;2023-02-26T17:19:10;6.00;;;2.20;;
35576;SDS011;21680;52.400;16.920;2023-02-26T17:21:36;5.20;;;2.20;;
35576;SDS011;21680;52.400;16.920;2023-02-26T17:24:08;4.60;;;1.50;;
35576;SDS011;21680;52.400;16.920;2023-02-26T17:26:41;6.80;;;2.20;;
35576;SDS011;21680;52.400;16.920;2023-02-26T17:29:08;4.50;;;1.40;;
35576;SDS011;21680;52.400;16.920;2023-02-26T17:31:41;6.50;;;1.70;;
35576;SDS011;21680;52.400;16.920;2023-02-26T17:34:08;5.70;;;2.00;;
35576;SDS011;21680;52.400;16.920;2023-02-26T17:36:35;6.20;;;1.90;;
35576;SDS011;21680;52.400;16.920;2023-02-26T17:39:00;7.50;;;2.70;;
35576;SDS011;21680;52.400;16.920;2023-02-26T17:41:26;8.60;;;2.70;;